Time;durP1;ratioP1;P1;durP2;ratioP2;P2;SDS_P1;SDS_P2;PMS_P1;PMS_P2;Temp;Humidity;BMP_temperature;BMP_pressure;BME280_temperature;BME280_humidity;BME280_pressure;Samples;Min_cycle;Max_cycle;Signal;HPM_P1;HPM_P2
2023/06/09 00:04:50;;;;;;;22.40;17.30;;;;;;;15.91;100.00;98823.62;273213;1262;23310;-86
2023/06/09 00:12:16;;;;;;;23.70;17.80;;;;;;;15.91;100.00;98813.43;273928;1266;22361;-87
2023/06/09 00:27:11;;;;;;;24.10;17.80;;;;;;;15.93;100.00;98794.00;271688;1266;22471;-85
2023/06/09 00:33:39;;;;;;;23.50;18.10;;;;;;;15.89;100.00;98798.23;273519;1266;22976;-86
2023/06/09 00:41:21;;;;;;;26.30;19.20;;;;;;;15.85;100.00;98803.58;273051;1267;22552;-85
2023/06/09 01:03:03;;;;;;;28.70;21.40;;;;;;;15.79;100.00;98791.04;274156;1266;22310;-86
2023/06/09 01:10:06;;;;;;;26.80;19.90;;;;;;;15.81;100.00;98789.20;271849;1267;22623;-86
2023/06/09 01:16:44;;;;;;;28.70;21.20;;;;;;;15.79;100.00;98785.04;271234;1262;22525;-86
2023/06/09 01:23:03;;;;;;;28.30;21.90;;;;;;;15.79;100.00;98779.21;272546;1267;22151;-86
2023/06/09 01:52:52;;;;;;;37.10;24.50;;;;;;;15.85;100.00;98764.06;274182;1266;23580;-86
2023/06/09 02:14:33;;;;;;;40.60;26.80;;;;;;;15.84;100.00;98749.25;274186;1264;23095;-86
2023/06/09 02:22:08;;;;;;;41.20;27.30;;;;;;;15.86;100.00;98751.91;272810;1270;23434;-87
2023/06/09 02:29:00;;;;;;;45.80;29.20;;;;;;;15.85;100.00;98751.15;272008;1270;24330;-87
2023/06/09 02:35:06;;;;;;;50.10;30.40;;;;;;;15.83;100.00;98752.35;274158;1271;22243;-87
2023/06/09 02:41:57;;;;;;;51.80;29.90;;;;;;;15.84;100.00;98746.18;273990;1260;22249;-87
2023/06/09 02:49:54;;;;;;;52.10;28.50;;;;;;;15.85;100.00;98749.40;274230;1263;22219;-87
2023/06/09 02:57:00;;;;;;;50.90;30.50;;;;;;;15.87;100.00;98751.81;274119;1267;22256;-87
2023/06/09 03:03:45;;;;;;;58.70;33.10;;;;;;;15.89;100.00;98755.41;272407;1267;22211;-88
2023/06/09 03:10:55;;;;;;;;;;;;;;;;;;;;;
2023/06/09 03:18:46;;;;;;;58.10;31.80;;;;;;;15.92;100.00;98759.64;269478;1276;22549;-88
2023/06/09 03:26:10;;;;;;;;;;;;;;;15.93;100.00;98767.34;271978;1265;22534;-89
2023/06/09 03:33:30;;;;;;;72.10;36.10;;;;;;;15.93;100.00;98777.59;273361;1267;22216;-89
2023/06/09 03:40:04;;;;;;;66.50;33.90;;;;;;;15.95;100.00;98787.74;272285;1267;22599;-88
2023/06/09 03:46:48;;;;;;;66.30;33.80;;;;;;;15.98;100.00;98793.14;271425;1266;22549;-88
2023/06/09 04:10:13;;;;;;;51.00;29.50;;;;;;;16.03;100.00;98797.50;271266;1273;23289;-86
2023/06/09 04:18:05;;;;;;;42.50;26.80;;;;;;;16.05;100.00;98798.25;271471;1264;23674;-88
2023/06/09 04:25:44;;;;;;;;;;;;;;;;;;;;;
2023/06/09 04:32:53;;;;;;;43.90;26.30;;;;;;;16.11;100.00;98795.80;271020;1272;22665;-88
2023/06/09 04:40:57;;;;;;;40.50;25.40;;;;;;;16.14;100.00;98795.20;272236;1270;22953;-87
2023/06/09 05:03:34;;;;;;;41.10;23.90;;;;;;;16.36;100.00;98790.23;272030;1267;22462;-88
2023/06/09 05:26:50;;;;;;;51.10;29.40;;;;;;;16.49;100.00;98798.59;272270;1276;22900;-88
2023/06/09 05:42:40;;;;;;;51.20;29.00;;;;;;;16.69;100.00;98791.77;272410;1279;22569;-87
2023/06/09 05:50:06;;;;;;;47.00;27.80;;;;;;;16.81;100.00;98785.48;269817;1278;22212;-88
2023/06/09 05:57:12;;;;;;;49.40;27.80;;;;;;;16.90;100.00;98785.58;272758;1271;22224;-89
2023/06/09 06:04:44;;;;;;;39.90;25.60;;;;;;;16.98;100.00;98791.91;272068;1271;22523;-88
2023/06/09 06:12:30;;;;;;;40.60;25.30;;;;;;;16.99;100.00;98799.15;272459;1267;22538;-88
2023/06/09 06:43:32;;;;;;;35.50;24.20;;;;;;;17.47;100.00;98823.05;272830;1267;22331;-90
2023/06/09 06:51:49;;;;;;;31.70;21.20;;;;;;;17.61;100.00;98822.29;271736;1266;22534;-88
2023/06/09 06:59:20;;;;;;;36.70;23.80;;;;;;;17.69;100.00;98820.71;270581;1274;23876;-89
2023/06/09 07:06:48;;;;;;;29.80;21.30;;;;;;;17.78;100.00;98821.08;270633;1269;24308;-88
2023/06/09 07:14:55;;;;;;;;;;;;;;;;;;;;;
2023/06/09 07:21:19;;;;;;;25.90;19.90;;;;;;;17.99;100.00;98831.95;272170;1266;22640;-89
2023/06/09 07:28:13;;;;;;;27.90;19.40;;;;;;;18.20;100.00;98826.57;270752;1267;22275;-88
2023/06/09 07:35:12;;;;;;;25.60;18.30;;;;;;;18.54;100.00;98828.28;272689;1267;23379;-89
2023/06/09 07:42:39;;;;;;;23.40;19.10;;;;;;;18.81;100.00;98825.95;273572;1267;23872;-89
2023/06/09 07:49:02;;;;;;;27.40;20.50;;;;;;;19.24;100.00;98816.71;273822;1274;22534;-89
2023/06/09 07:55:06;;;;;;;26.30;19.00;;;;;;;19.48;100.00;98816.55;271656;1267;22546;-88
2023/06/09 08:01:09;;;;;;;22.80;19.30;;;;;;;19.88;100.00;98809.94;271894;1267;24179;-89
2023/06/09 08:07:37;;;;;;;24.40;19.30;;;;;;;20.37;100.00;98805.40;272326;1264;22301;-88
2023/06/09 08:13:49;;;;;;;;;;;;;;;20.65;100.00;98809.02;271782;1266;22519;-86
2023/06/09 08:19:59;;;;;;;23.90;17.90;;;;;;;20.75;100.00;98804.31;271823;1266;22526;-87
2023/06/09 08:26:14;;;;;;;17.90;14.90;;;;;;;20.84;100.00;98799.72;271368;1266;24085;-89
2023/06/09 08:32:41;;;;;;;20.30;16.10;;;;;;;21.13;100.00;98795.48;271348;1266;22540;-87
2023/06/09 08:38:47;;;;;;;18.50;13.70;;;;;;;21.38;100.00;98788.95;272757;1266;22305;-86
2023/06/09 08:44:50;;;;;;;15.50;13.80;;;;;;;21.54;100.00;98787.52;270783;1259;23016;-86
2023/06/09 08:50:54;;;;;;;15.50;12.60;;;;;;;21.69;99.98;98782.85;271437;1266;22200;-88
2023/06/09 08:56:57;;;;;;;20.20;13.40;;;;;;;21.70;99.50;98781.43;273232;1266;22559;-88
2023/06/09 09:02:59;;;;;;;18.00;13.10;;;;;;;21.97;99.28;98766.82;270442;1266;25388;-86
2023/06/09 09:09:02;;;;;;;16.00;12.70;;;;;;;22.17;95.98;98762.71;270172;1266;22562;-89
2023/06/09 09:15:15;;;;;;;15.50;13.90;;;;;;;22.35;95.95;98752.66;272105;1267;22606;-88
2023/06/09 09:21:27;;;;;;;19.00;11.60;;;;;;;22.70;96.37;98744.54;272201;1266;22628;-87
2023/06/09 09:27:37;;;;;;;16.00;12.20;;;;;;;23.11;94.99;98740.11;272014;1267;22524;-86
2023/06/09 09:34:00;;;;;;;15.00;11.60;;;;;;;23.21;91.60;98745.80;271319;1266;22981;-86
2023/06/09 09:40:13;;;;;;;10.90;9.80;;;;;;;23.14;89.73;98743.40;272586;1266;22210;-87
2023/06/09 09:46:19;;;;;;;11.30;9.80;;;;;;;23.73;88.94;98739.73;271753;1266;22307;-87
2023/06/09 09:52:30;;;;;;;10.20;9.20;;;;;;;24.07;85.91;98727.98;272213;1266;22347;-90
2023/06/09 09:58:50;;;;;;;10.10;8.50;;;;;;;24.45;85.55;98712.80;270971;1267;23800;-87
2023/06/09 10:05:35;;;;;;;8.70;7.90;;;;;;;24.50;83.92;98707.48;272773;1266;22507;-87
2023/06/09 10:11:37;;;;;;;10.00;8.40;;;;;;;24.91;82.09;98706.10;271255;1267;22605;-89
2023/06/09 10:17:42;;;;;;;9.30;8.40;;;;;;;25.05;79.78;98703.38;272030;1266;25526;-88
2023/06/09 10:23:47;;;;;;;8.10;7.30;;;;;;;25.29;78.57;98696.94;271242;1266;22492;-90
2023/06/09 10:29:57;;;;;;;9.60;8.00;;;;;;;25.40;75.84;98686.17;271897;1269;23934;-85
2023/06/09 10:36:09;;;;;;;12.20;8.30;;;;;;;25.50;74.84;98680.53;272052;1267;22332;-88
2023/06/09 10:42:35;;;;;;;9.20;7.50;;;;;;;25.31;75.47;98677.42;272402;1267;22316;-89
2023/06/09 10:48:50;;;;;;;9.90;8.40;;;;;;;25.70;75.32;98671.81;271601;1262;23317;-89
2023/06/09 10:55:15;;;;;;;9.50;7.60;;;;;;;25.74;74.31;98683.86;270825;1268;22605;-87
2023/06/09 11:01:34;;;;;;;7.70;6.90;;;;;;;25.55;73.84;98686.02;271404;1266;22214;-89
2023/06/09 11:07:46;;;;;;;9.80;7.90;;;;;;;25.10;72.90;98690.09;272274;1267;22305;-87
2023/06/09 11:14:06;;;;;;;7.90;7.00;;;;;;;24.65;72.67;98687.42;272917;1267;25348;-86
2023/06/09 11:20:19;;;;;;;9.10;7.60;;;;;;;24.31;71.30;98699.58;271978;1265;22565;-88
2023/06/09 11:26:23;;;;;;;10.10;8.10;;;;;;;24.09;71.35;98696.58;273856;1266;22583;-88
2023/06/09 11:32:57;;;;;;;10.50;8.40;;;;;;;24.01;71.27;98688.67;273825;1268;23088;-90
2023/06/09 11:39:04;;;;;;;9.60;8.70;;;;;;;23.86;71.70;98686.39;273849;1266;22118;-88
2023/06/09 11:45:08;;;;;;;9.70;8.70;;;;;;;23.74;71.84;98694.25;273641;1266;22471;-87
2023/06/09 11:51:21;;;;;;;;;;;;;;;;;;;;;
2023/06/09 11:57:39;;;;;;;9.80;8.80;;;;;;;23.40;72.17;98695.75;270171;1266;22636;-87
2023/06/09 12:03:44;;;;;;;11.10;9.40;;;;;;;23.32;72.11;98687.65;270690;1266;22526;-85
2023/06/09 12:09:56;;;;;;;11.90;9.90;;;;;;;23.22;72.37;98683.20;270565;1266;22530;-87
2023/06/09 12:16:04;;;;;;;11.70;10.20;;;;;;;23.11;72.46;98678.09;271068;1266;22527;-88
2023/06/09 12:22:30;;;;;;;11.60;10.50;;;;;;;22.96;73.16;98669.44;270850;1266;25457;-86
2023/06/09 12:28:35;;;;;;;12.40;11.10;;;;;;;22.89;74.49;98663.52;271448;1267;25246;-88
2023/06/09 12:34:38;;;;;;;15.10;13.10;;;;;;;22.79;75.59;98665.41;271652;1266;22613;-86
2023/06/09 12:40:51;;;;;;;14.60;10.90;;;;;;;22.72;75.89;98676.05;270972;1266;24119;-86
2023/06/09 12:46:56;;;;;;;12.30;10.60;;;;;;;22.62;76.16;98682.17;270213;1266;22563;-88
2023/06/09 12:53:16;;;;;;;16.30;12.30;;;;;;;22.58;76.83;98678.45;270726;1266;23401;-87
2023/06/09 12:59:47;;;;;;;13.60;10.70;;;;;;;22.43;77.65;98674.50;271115;1266;23230;-88
2023/06/09 13:06:06;;;;;;;9.60;8.60;;;;;;;22.27;78.15;98673.26;272768;1266;22180;-87
2023/06/09 13:12:10;;;;;;;;;;;;;;;22.17;77.39;98668.23;270746;1267;22507;-90
2023/06/09 13:19:00;;;;;;;5.70;5.10;;;;;;;21.98;75.55;98656.94;270530;1266;25373;-89
2023/06/09 13:25:06;;;;;;;5.00;4.50;;;;;;;21.90;75.46;98640.19;270342;1266;22535;-89
2023/06/09 13:31:08;;;;;;;5.70;5.00;;;;;;;21.87;75.27;98621.32;271453;1267;22202;-89
2023/06/09 13:37:11;;;;;;;5.20;3.30;;;;;;;21.86;75.57;98613.39;271334;1267;22602;-86
2023/06/09 13:43:16;;;;;;;3.60;3.10;;;;;;;21.78;75.37;98607.33;270979;1266;22514;-89
2023/06/09 13:49:30;;;;;;;4.00;2.80;;;;;;;21.72;75.46;98610.55;271806;1263;23815;-88
2023/06/09 13:55:49;;;;;;;6.50;3.70;;;;;;;21.68;75.07;98613.88;273163;1265;22498;-88
2023/06/09 14:02:07;;;;;;;4.60;3.40;;;;;;;21.61;75.11;98610.36;273645;1266;22706;-88
2023/06/09 14:08:09;;;;;;;3.70;2.20;;;;;;;21.57;74.93;98600.48;271890;1267;24281;-88
2023/06/09 14:14:11;;;;;;;2.60;1.90;;;;;;;21.48;74.66;98606.89;271039;1266;22530;-88
2023/06/09 14:20:14;;;;;;;4.80;1.80;;;;;;;21.47;74.31;98622.44;271220;1265;22554;-89
2023/06/09 14:26:16;;;;;;;5.20;1.90;;;;;;;21.42;74.30;98633.45;271242;1265;22316;-88
2023/06/09 14:32:18;;;;;;;2.40;1.50;;;;;;;21.35;73.91;98628.69;272514;1255;22454;-87
2023/06/09 14:38:20;;;;;;;3.60;2.70;;;;;;;21.37;73.86;98636.13;274032;1265;22423;-87
2023/06/09 14:44:21;;;;;;;2.80;2.00;;;;;;;21.38;73.66;98636.56;273974;1266;22308;-86
2023/06/09 14:50:31;;;;;;;5.40;2.60;;;;;;;21.37;73.83;98650.73;273095;1262;23056;-86
2023/06/09 14:56:41;;;;;;;3.40;2.00;;;;;;;21.41;73.90;98657.19;273430;1258;22566;-87
2023/06/09 15:02:46;;;;;;;4.20;2.00;;;;;;;21.53;73.45;98657.14;271835;1265;22371;-88
2023/06/09 15:08:52;;;;;;;4.30;2.10;;;;;;;21.75;73.64;98653.50;272301;1268;24236;-89
2023/06/09 15:15:00;;;;;;;2.70;2.10;;;;;;;22.24;74.00;98649.33;271117;1267;22605;-88
2023/06/09 15:21:02;;;;;;;2.60;2.10;;;;;;;22.61;73.43;98654.48;270423;1268;22546;-88
2023/06/09 15:36:09;;;;;;;3.10;2.20;;;;;;;22.73;72.37;98656.05;270378;1267;22766;-89
2023/06/09 15:42:15;;;;;;;2.30;2.10;;;;;;;22.62;71.53;98651.98;270935;1273;22703;-88
2023/06/09 15:49:02;;;;;;;3.40;2.70;;;;;;;22.61;71.85;98647.92;269824;1271;22528;-89
2023/06/09 15:56:20;;;;;;;3.50;3.10;;;;;;;22.68;71.56;98643.33;270714;1267;23569;-88
2023/06/09 16:02:33;;;;;;;7.50;4.80;;;;;;;22.67;71.59;98652.07;270535;1269;22482;-86
2023/06/09 16:24:32;;;;;;;7.60;6.20;;;;;;;21.73;74.59;98676.02;270111;1273;23065;-90
2023/06/09 16:30:39;;;;;;;7.20;5.40;;;;;;;21.58;75.64;98684.86;270190;1265;22520;-89
2023/06/09 16:36:45;;;;;;;8.70;5.10;;;;;;;21.50;76.46;98690.35;271019;1266;22326;-89
2023/06/09 16:42:51;;;;;;;11.70;8.30;;;;;;;21.31;77.58;98706.50;270625;1266;284376;-90
2023/06/09 16:48:53;;;;;;;9.70;6.80;;;;;;;21.03;79.15;98710.20;271197;1265;23659;-88
2023/06/09 16:55:04;;;;;;;9.70;7.70;;;;;;;20.75;80.29;98715.55;270087;1267;22551;-88
2023/06/09 17:01:10;;;;;;;7.60;6.40;;;;;;;20.44;81.61;98713.75;270335;1266;22568;-85
2023/06/09 17:07:12;;;;;;;13.10;6.40;;;;;;;20.13;82.53;98707.73;270347;1267;25419;-87
2023/06/09 17:13:15;;;;;;;9.50;5.70;;;;;;;19.84;83.87;98698.23;271971;1266;22286;-88
2023/06/09 17:19:18;;;;;;;6.00;5.40;;;;;;;19.59;84.69;98690.98;270766;1267;22531;-89
2023/06/09 17:25:20;;;;;;;7.80;6.30;;;;;;;19.36;86.18;98684.29;271297;1267;24284;-87
2023/06/09 17:31:22;;;;;;;13.60;6.90;;;;;;;19.24;88.05;98682.72;272753;1265;22189;-88
2023/06/09 17:37:25;;;;;;;13.00;9.70;;;;;;;19.14;89.49;98676.89;273690;1269;22384;-90
2023/06/09 17:43:29;;;;;;;16.90;12.80;;;;;;;19.06;90.57;98671.64;273788;1265;22344;-88
2023/06/09 17:49:38;;;;;;;17.80;13.40;;;;;;;19.00;91.26;98668.58;273856;1266;22317;-87
2023/06/09 17:55:41;;;;;;;15.10;11.10;;;;;;;18.91;91.99;98674.38;273731;1266;23006;-87
2023/06/09 18:02:01;;;;;;;16.10;10.60;;;;;;;18.87;93.03;98676.05;273422;1266;22537;-87
2023/06/09 18:08:10;;;;;;;13.80;9.70;;;;;;;18.74;93.50;98685.12;272302;1266;23051;-86
2023/06/09 18:14:13;;;;;;;15.50;11.40;;;;;;;18.52;94.36;98692.73;273667;1266;22430;-87
2023/06/09 18:20:15;;;;;;;11.70;9.80;;;;;;;18.38;95.57;98693.41;266074;1265;10001468;-86
2023/06/09 18:26:18;;;;;;;13.80;10.60;;;;;;;18.34;96.31;98700.75;273947;1266;22374;-87
2023/06/09 18:32:23;;;;;;;13.60;12.00;;;;;;;18.35;96.95;98704.86;273341;1270;22351;-87
2023/06/09 18:38:36;;;;;;;16.70;11.90;;;;;;;18.32;97.51;98719.59;273371;1265;22414;-86
2023/06/09 18:44:38;;;;;;;14.60;11.40;;;;;;;18.28;98.24;98728.48;272858;1267;23252;-87
2023/06/09 18:50:40;;;;;;;15.20;11.40;;;;;;;18.22;98.60;98727.66;272054;1266;22336;-87
2023/06/09 18:56:42;;;;;;;13.50;10.50;;;;;;;18.13;99.35;98725.11;271621;1266;22530;-87
2023/06/09 19:02:46;;;;;;;13.10;11.00;;;;;;;18.03;99.63;98729.86;271811;1267;22309;-89
2023/06/09 19:08:50;;;;;;;15.40;11.40;;;;;;;17.90;100.00;98731.04;272497;1266;22570;-88
2023/06/09 19:14:52;;;;;;;13.30;11.90;;;;;;;17.82;100.00;98736.27;271481;1266;22538;-88
2023/06/09 19:20:57;;;;;;;16.00;12.50;;;;;;;17.71;100.00;98740.77;271232;1267;22599;-88
2023/06/09 19:26:59;;;;;;;16.00;12.20;;;;;;;17.64;100.00;98744.09;271379;1265;22567;-88
2023/06/09 19:33:02;;;;;;;15.30;12.50;;;;;;;17.60;100.00;98744.97;271268;1267;22500;-88
2023/06/09 19:39:06;;;;;;;16.80;13.10;;;;;;;17.57;100.00;98746.84;271329;1266;22580;-88
2023/06/09 19:45:08;;;;;;;14.80;13.20;;;;;;;17.56;100.00;98749.96;273126;1267;22315;-88
2023/06/09 19:51:10;;;;;;;17.30;13.50;;;;;;;17.55;100.00;98750.47;272241;1265;22227;-87
2023/06/09 19:57:13;;;;;;;14.30;12.70;;;;;;;17.53;100.00;98744.40;271486;1266;22563;-87
2023/06/09 20:03:15;;;;;;;14.20;11.70;;;;;;;17.55;100.00;98742.86;273468;1267;22475;-87
2023/06/09 20:09:35;;;;;;;18.10;14.50;;;;;;;17.57;100.00;98736.27;273746;1266;22358;-87
2023/06/09 20:15:37;;;;;;;19.10;15.80;;;;;;;17.56;100.00;98738.89;272758;1259;22498;-87
2023/06/09 20:21:40;;;;;;;20.00;17.60;;;;;;;17.45;100.00;98738.14;273884;1266;22292;-87
2023/06/09 20:27:42;;;;;;;21.10;18.00;;;;;;;17.41;100.00;98740.83;274036;1267;22163;-87
2023/06/09 20:34:00;;;;;;;14.90;13.20;;;;;;;17.39;100.00;98735.42;272855;1265;26245;-88
2023/06/09 20:40:04;;;;;;;20.80;16.10;;;;;;;17.34;100.00;98737.27;270602;1266;22587;-87
2023/06/09 20:46:09;;;;;;;18.30;16.40;;;;;;;17.29;100.00;98741.56;270547;1267;22613;-87
2023/06/09 20:52:17;;;;;;;19.20;16.10;;;;;;;17.27;100.00;98743.80;270892;1267;22536;-87
2023/06/09 20:58:19;;;;;;;23.00;19.20;;;;;;;17.26;100.00;98746.75;273331;1266;22311;-87
2023/06/09 21:04:22;;;;;;;23.80;19.50;;;;;;;17.17;100.00;98752.75;273992;1265;22378;-88
2023/06/09 21:10:45;;;;;;;24.50;18.80;;;;;;;17.09;100.00;98751.25;272034;1267;22242;-87
2023/06/09 21:16:47;;;;;;;29.20;22.50;;;;;;;17.03;100.00;98755.38;273916;1265;22301;-87
2023/06/09 21:22:49;;;;;;;34.70;25.30;;;;;;;16.97;100.00;98761.03;274089;1265;22302;-87
2023/06/09 21:28:55;;;;;;;33.00;24.50;;;;;;;16.92;100.00;98764.92;271543;1267;22174;-87
2023/06/09 21:34:56;;;;;;;30.30;23.40;;;;;;;16.85;100.00;98765.04;273886;1266;22488;-87
2023/06/09 21:40:58;;;;;;;28.00;22.10;;;;;;;16.85;100.00;98761.49;270906;1265;25242;-87
2023/06/09 21:47:00;;;;;;;27.90;22.40;;;;;;;16.80;100.00;98762.13;270610;1266;22644;-87
2023/06/09 21:53:02;;;;;;;32.40;25.40;;;;;;;16.76;100.00;98756.20;270546;1265;24261;-87
2023/06/09 21:59:04;;;;;;;26.70;21.50;;;;;;;16.71;100.00;98759.60;270166;1266;22556;-87
2023/06/09 22:05:06;;;;;;;29.40;24.20;;;;;;;16.64;100.00;98756.49;269741;1265;23225;-86
2023/06/09 22:11:08;;;;;;;31.70;24.20;;;;;;;16.60;100.00;98749.69;269960;1265;23835;-87
2023/06/09 22:17:30;;;;;;;30.50;25.50;;;;;;;16.59;100.00;98739.44;269935;1266;22622;-87
2023/06/09 22:23:33;;;;;;;28.50;23.20;;;;;;;16.54;100.00;98740.39;270341;1265;22306;-86
2023/06/09 22:29:38;;;;;;;27.20;22.30;;;;;;;16.40;100.00;98740.77;270206;1266;22661;-87
2023/06/09 22:35:40;;;;;;;22.30;19.60;;;;;;;16.28;100.00;98737.56;269552;1265;22571;-89
2023/06/09 22:42:05;;;;;;;26.90;22.90;;;;;;;16.23;100.00;98735.04;270043;1250;25558;-87
2023/06/09 22:48:11;;;;;;;29.50;23.90;;;;;;;16.20;100.00;98733.27;271454;1265;22297;-88
2023/06/09 22:54:13;;;;;;;22.80;19.30;;;;;;;16.11;100.00;98732.77;270976;1265;23125;-85
2023/06/09 23:00:26;;;;;;;28.40;25.10;;;;;;;16.02;100.00;98730.77;269665;1265;24224;-86
2023/06/09 23:06:29;;;;;;;29.30;22.40;;;;;;;15.97;100.00;98728.89;269985;1265;23621;-86
2023/06/09 23:12:31;;;;;;;28.00;24.70;;;;;;;15.91;100.00;98725.10;270808;1251;22560;-87
2023/06/09 23:18:33;;;;;;;32.70;26.20;;;;;;;15.92;100.00;98722.50;270963;1255;25286;-87
2023/06/09 23:24:35;;;;;;;28.20;23.80;;;;;;;15.92;100.00;98725.80;271234;1265;22163;-87
2023/06/09 23:30:37;;;;;;;32.70;23.80;;;;;;;15.91;100.00;98727.79;271515;1266;22417;-86
2023/06/09 23:36:43;;;;;;;30.80;24.90;;;;;;;15.88;100.00;98719.31;274068;1265;22344;-87
2023/06/09 23:42:52;;;;;;;30.80;24.90;;;;;;;15.88;100.00;98721.84;270652;1265;22523;-86
2023/06/09 23:49:02;;;;;;;29.40;26.00;;;;;;;15.93;100.00;98722.86;270807;1265;22607;-87
2023/06/09 23:55:07;;;;;;;30.70;26.20;;;;;;;16.02;100.00;98717.13;270932;1265;22893;-88
